createdAt,value
2023-04-23T00:02:23.126Z,7.12
2023-04-23T00:04:52.894Z,7.64
2023-04-23T00:07:22.024Z,7.80
2023-04-23T00:09:52.914Z,7.60
2023-04-23T00:12:21.226Z,7.46
2023-04-23T00:14:48.569Z,7.84
2023-04-23T00:17:15.740Z,7.50
2023-04-23T00:19:42.982Z,7.73
2023-04-23T00:22:10.113Z,7.65
2023-04-23T00:24:39.364Z,7.51
2023-04-23T00:27:06.921Z,7.81
2023-04-23T00:29:35.885Z,7.63
2023-04-23T00:32:03.603Z,7.61
2023-04-23T00:34:33.535Z,7.42
2023-04-23T00:37:00.596Z,7.37
2023-04-23T00:39:27.880Z,7.88
2023-04-23T00:41:55.024Z,7.64
2023-04-23T00:44:22.703Z,7.38
2023-04-23T00:46:50.536Z,7.65
2023-04-23T00:49:19.255Z,7.84
2023-04-23T00:51:46.399Z,7.79
2023-04-23T00:54:14.524Z,7.37
2023-04-23T00:56:41.634Z,7.75
2023-04-23T00:59:08.946Z,7.58
2023-04-23T01:01:36.279Z,7.80
2023-04-23T01:04:03.905Z,7.74
2023-04-23T01:06:32.027Z,7.54
2023-04-23T01:08:59.579Z,7.50
2023-04-23T01:11:27.031Z,7.60
2023-04-23T01:13:58.535Z,7.84
2023-04-23T01:16:25.693Z,7.88
2023-04-23T01:18:54.145Z,7.57
2023-04-23T01:21:21.533Z,7.25
2023-04-23T01:23:49.152Z,7.52
2023-04-23T01:26:16.722Z,7.40
2023-04-23T01:28:50.110Z,7.51
2023-04-23T01:31:17.526Z,7.83
2023-04-23T01:33:44.961Z,7.83
2023-04-23T01:36:12.631Z,7.58
2023-04-23T01:38:39.887Z,7.83
2023-04-23T01:41:06.931Z,7.58
2023-04-23T01:43:34.787Z,7.65
2023-04-23T01:46:02.164Z,7.83
2023-04-23T01:48:29.364Z,7.56
2023-04-23T01:50:57.116Z,7.67
2023-04-23T01:53:24.355Z,7.44
2023-04-23T01:55:52.749Z,7.58
2023-04-23T01:58:19.814Z,7.53
2023-04-23T02:00:47.541Z,7.34
2023-04-23T02:03:15.123Z,7.66
2023-04-23T02:05:42.951Z,7.54
2023-04-23T02:08:10.614Z,7.45
2023-04-23T02:10:37.937Z,7.68
2023-04-23T02:13:05.304Z,7.81
2023-04-23T02:15:32.801Z,7.33
2023-04-23T02:18:00.812Z,7.58
2023-04-23T02:20:27.924Z,7.61
2023-04-23T02:22:55.132Z,7.42
2023-04-23T02:25:22.167Z,7.48
2023-04-23T02:27:49.600Z,7.72
2023-04-23T02:30:16.835Z,7.23
2023-04-23T02:32:44.154Z,7.24
2023-04-23T02:35:11.317Z,7.74
2023-04-23T02:37:38.409Z,7.13
2023-04-23T02:40:06.935Z,7.62
2023-04-23T02:42:34.454Z,6.88
2023-04-23T02:45:01.667Z,7.82
2023-04-23T02:47:28.790Z,7.56
2023-04-23T02:49:56.224Z,7.31
2023-04-23T02:52:23.259Z,6.09
2023-04-23T02:54:50.378Z,7.12
2023-04-23T02:57:21.534Z,7.62
2023-04-23T02:59:48.670Z,6.85
2023-04-23T03:02:19.173Z,7.56
2023-04-23T03:04:47.108Z,7.38
2023-04-23T03:07:17.518Z,7.49
2023-04-23T03:09:44.669Z,7.47
2023-04-23T03:12:11.813Z,7.33
2023-04-23T03:14:39.167Z,7.53
2023-04-23T03:17:06.566Z,7.32
2023-04-23T03:19:37.571Z,7.48
2023-04-23T03:22:05.949Z,7.33
2023-04-23T03:24:33.829Z,7.32
2023-04-23T03:27:00.999Z,7.00
2023-04-23T03:29:28.587Z,7.22
2023-04-23T03:31:56.854Z,7.53
2023-04-23T03:34:27.429Z,6.91
2023-04-23T03:36:54.725Z,6.43
2023-04-23T03:39:21.953Z,5.85
2023-04-23T03:41:52.625Z,5.73
2023-04-23T03:44:24.001Z,5.75
2023-04-23T03:46:52.762Z,7.23
2023-04-23T03:49:21.004Z,7.40
2023-04-23T03:51:48.083Z,7.35
2023-04-23T03:54:16.066Z,6.78
2023-04-23T03:57:06.852Z,6.84
2023-04-23T03:59:43.267Z,7.00
2023-04-23T04:02:11.127Z,7.24
2023-04-23T04:04:38.604Z,6.86
2023-04-23T04:07:07.500Z,6.89
2023-04-23T04:09:34.660Z,7.28
2023-04-23T04:12:02.113Z,7.23
2023-04-23T04:14:29.167Z,7.13
2023-04-23T04:16:57.084Z,6.70
2023-04-23T04:19:24.620Z,6.99
2023-04-23T04:21:59.325Z,6.70
2023-04-23T04:24:26.442Z,7.08
2023-04-23T04:26:54.153Z,7.05
2023-04-23T04:29:21.569Z,6.91
2023-04-23T04:31:52.708Z,6.89
2023-04-23T04:34:20.488Z,6.16
2023-04-23T04:36:48.016Z,6.74
2023-04-23T04:39:15.251Z,6.89
2023-04-23T04:41:43.054Z,6.67
2023-04-23T04:44:10.075Z,6.44
2023-04-23T04:46:40.432Z,6.52
2023-04-23T04:49:09.177Z,6.80
2023-04-23T04:51:37.420Z,6.59
2023-04-23T04:54:04.913Z,6.59
2023-04-23T04:56:32.082Z,6.86
2023-04-23T04:58:59.039Z,6.81
2023-04-23T05:01:27.668Z,6.92
2023-04-23T05:03:56.236Z,7.10
2023-04-23T05:06:23.566Z,7.04
2023-04-23T05:08:50.519Z,6.80
2023-04-23T05:11:20.272Z,6.96
2023-04-23T05:13:48.563Z,6.78
2023-04-23T05:16:15.963Z,7.21
2023-04-23T05:18:43.233Z,7.19
2023-04-23T05:21:10.581Z,7.21
2023-04-23T05:23:37.910Z,7.37
2023-04-23T05:26:05.048Z,7.40
2023-04-23T05:28:32.177Z,7.34
2023-04-23T05:30:59.369Z,7.19
2023-04-23T05:33:30.707Z,7.73
2023-04-23T05:36:00.443Z,7.37
2023-04-23T05:38:27.501Z,7.66
2023-04-23T05:40:54.543Z,7.59
2023-04-23T05:43:21.594Z,7.66
2023-04-23T05:45:48.799Z,7.37
2023-04-23T05:48:16.168Z,7.50
2023-04-23T05:50:43.464Z,7.94
2023-04-23T05:53:10.614Z,7.62
2023-04-23T05:55:37.780Z,8.09
2023-04-23T05:58:05.388Z,7.44
2023-04-23T06:00:32.789Z,8.21
2023-04-23T06:03:00.104Z,8.30
2023-04-23T06:05:27.441Z,7.87
2023-04-23T06:07:54.810Z,7.87
2023-04-23T06:10:23.260Z,7.60
2023-04-23T06:12:50.372Z,8.32
2023-04-23T06:15:17.415Z,8.05
2023-04-23T06:17:45.181Z,7.90
2023-04-23T06:20:12.501Z,8.22
2023-04-23T06:22:39.751Z,8.33
2023-04-23T06:25:07.518Z,8.41
2023-04-23T06:27:34.685Z,8.40
2023-04-23T06:30:08.592Z,8.55
2023-04-23T06:32:36.418Z,7.89
2023-04-23T06:35:04.775Z,8.22
2023-04-23T06:37:32.155Z,8.68
2023-04-23T06:39:59.919Z,8.12
2023-04-23T06:42:27.217Z,7.88
2023-04-23T06:48:07.398Z,8.21
2023-04-23T06:50:34.686Z,8.75
2023-04-23T06:53:07.500Z,7.97
2023-04-23T06:55:34.817Z,9.13
2023-04-23T06:58:01.930Z,8.97
2023-04-23T07:00:29.042Z,8.99
2023-04-23T07:02:56.593Z,8.79
2023-04-23T07:05:23.919Z,8.97
2023-04-23T07:07:51.188Z,9.24
2023-04-23T07:10:18.495Z,9.32
2023-04-23T07:12:46.093Z,8.62
2023-04-23T07:15:13.398Z,8.77
2023-04-23T07:17:40.626Z,9.04
2023-04-23T07:20:09.024Z,8.92
2023-04-23T07:22:39.202Z,9.32
2023-04-23T07:25:08.767Z,8.97
2023-04-23T07:27:36.187Z,9.03
2023-04-23T07:30:03.776Z,9.07
2023-04-23T07:32:31.001Z,8.63
2023-04-23T07:34:58.197Z,9.10
2023-04-23T07:37:25.354Z,8.96
2023-04-23T07:39:54.082Z,8.64
2023-04-23T07:42:21.160Z,8.90
2023-04-23T07:44:48.469Z,8.82
2023-04-23T07:47:15.849Z,8.80
2023-04-23T07:49:43.248Z,9.57
2023-04-23T07:52:11.085Z,9.15
2023-04-23T07:54:41.996Z,9.16
2023-04-23T07:57:11.569Z,9.72
2023-04-23T07:59:44.122Z,9.84
2023-04-23T08:02:12.785Z,9.27
2023-04-23T08:04:40.105Z,10.00
2023-04-23T08:07:07.279Z,9.86
2023-04-23T08:09:34.666Z,9.91
2023-04-23T08:12:02.267Z,10.33
2023-04-23T08:14:29.262Z,10.41
2023-04-23T08:16:56.318Z,10.09
2023-04-23T08:19:23.500Z,10.55
2023-04-23T08:21:51.055Z,10.06
2023-04-23T08:24:18.555Z,10.68
2023-04-23T08:26:46.933Z,10.54
2023-04-23T08:29:14.401Z,10.79
2023-04-23T08:31:41.969Z,10.91
2023-04-23T08:34:09.101Z,10.89
2023-04-23T08:36:39.162Z,10.81
2023-04-23T08:39:06.241Z,10.60
2023-04-23T08:41:43.369Z,10.80
2023-04-23T08:44:19.098Z,10.97
2023-04-23T08:46:46.651Z,11.31
2023-04-23T08:49:18.487Z,11.43
2023-04-23T08:51:55.285Z,11.42
2023-04-23T08:54:27.183Z,11.46
2023-04-23T08:56:58.556Z,11.59
2023-04-23T08:59:34.446Z,11.42
2023-04-23T09:02:08.292Z,11.68
2023-04-23T09:04:36.494Z,11.69
2023-04-23T09:07:04.775Z,11.85
2023-04-23T09:09:33.886Z,11.87
2023-04-23T09:12:01.475Z,11.65
2023-04-23T09:14:28.666Z,12.00
2023-04-23T09:16:56.026Z,11.98
2023-04-23T09:19:27.457Z,11.88
2023-04-23T09:21:55.003Z,12.01
2023-04-23T09:24:26.394Z,12.35
2023-04-23T09:26:55.105Z,12.49
2023-04-23T09:29:24.036Z,12.53
2023-04-23T09:31:56.116Z,12.63
2023-04-23T09:34:24.658Z,12.65
2023-04-23T09:36:53.386Z,12.59
2023-04-23T09:39:23.705Z,13.05
2023-04-23T09:41:53.851Z,12.87
2023-04-23T09:44:26.701Z,12.43
2023-04-23T09:46:53.744Z,13.03
2023-04-23T09:49:21.005Z,12.97
2023-04-23T09:51:49.595Z,12.67
2023-04-23T09:54:19.094Z,13.16
2023-04-23T09:56:50.767Z,13.08
2023-04-23T09:59:39.949Z,13.18
2023-04-23T10:02:13.684Z,13.09
2023-04-23T10:04:42.182Z,13.30
2023-04-23T10:09:43.889Z,13.29
2023-04-23T10:12:20.780Z,13.23
2023-04-23T10:14:59.803Z,13.07
2023-04-23T10:17:27.188Z,13.40
2023-04-23T10:19:56.001Z,12.95
2023-04-23T10:22:25.859Z,12.88
2023-04-23T10:24:57.527Z,12.78
2023-04-23T10:27:40.342Z,13.21
2023-04-23T10:30:15.451Z,13.22
2023-04-23T10:32:42.548Z,13.05
2023-04-23T10:35:10.123Z,13.01
2023-04-23T10:37:38.579Z,13.35
2023-04-23T10:40:14.533Z,12.97
2023-04-23T10:42:43.906Z,13.37
2023-04-23T10:45:25.557Z,13.46
2023-04-23T10:47:56.449Z,13.43
2023-04-23T10:50:31.412Z,13.41
2023-04-23T10:52:59.023Z,13.58
2023-04-23T10:55:32.744Z,13.53
2023-04-23T10:58:06.768Z,13.67
2023-04-23T11:00:46.227Z,13.78
2023-04-23T11:03:32.655Z,14.17
2023-04-23T11:06:04.270Z,14.04
2023-04-23T11:08:35.083Z,14.27
2023-04-23T11:11:10.998Z,13.84
2023-04-23T11:13:53.550Z,14.40
2023-04-23T11:16:24.037Z,13.81
2023-04-23T11:19:08.360Z,13.86
2023-04-23T11:22:01.172Z,14.34
2023-04-23T11:24:42.918Z,14.35
2023-04-23T11:27:16.721Z,14.04
2023-04-23T11:29:45.892Z,14.18
2023-04-23T11:32:17.444Z,14.43
2023-04-23T11:34:46.785Z,14.32
2023-04-23T11:37:18.649Z,14.46
2023-04-23T11:39:47.743Z,14.20
2023-04-23T11:42:15.889Z,13.72
2023-04-23T11:44:44.414Z,14.44
2023-04-23T11:47:13.722Z,14.42
2023-04-23T11:49:45.519Z,14.10
2023-04-23T11:52:14.585Z,14.05
2023-04-23T11:54:42.232Z,14.17
2023-04-23T11:57:10.462Z,14.34
2023-04-23T11:59:38.048Z,14.46
2023-04-23T12:02:05.154Z,14.18
2023-04-23T12:04:33.433Z,14.26
2023-04-23T12:07:01.040Z,14.07
2023-04-23T12:09:29.578Z,13.99
2023-04-23T12:11:58.663Z,14.22
2023-04-23T12:14:31.183Z,13.86
2023-04-23T12:17:08.939Z,13.61
2023-04-23T12:19:36.648Z,14.16
2023-04-23T12:22:04.909Z,13.89
2023-04-23T12:24:49.259Z,13.82
2023-04-23T12:27:20.536Z,13.63
2023-04-23T12:29:51.502Z,13.78
2023-04-23T12:32:23.125Z,13.74
2023-04-23T12:34:55.806Z,13.76
2023-04-23T12:37:29.479Z,14.00
2023-04-23T12:39:59.659Z,13.76
2023-04-23T12:42:27.095Z,13.62
2023-04-23T12:44:56.419Z,13.95
2023-04-23T12:47:23.582Z,13.83
2023-04-23T12:49:53.952Z,13.81
2023-04-23T12:52:21.379Z,13.37
2023-04-23T12:54:52.373Z,13.76
2023-04-23T12:57:23.401Z,13.68
2023-04-23T12:59:51.076Z,13.74
2023-04-23T13:02:18.487Z,13.65
2023-04-23T13:04:45.691Z,13.50
2023-04-23T13:07:12.732Z,13.44
2023-04-23T13:09:39.847Z,13.76
2023-04-23T13:12:06.979Z,13.52
2023-04-23T13:14:34.050Z,13.61
2023-04-23T13:17:01.303Z,13.65
2023-04-23T13:19:29.726Z,13.45
2023-04-23T13:21:56.768Z,13.40
2023-04-23T13:24:23.840Z,13.10
2023-04-23T13:26:50.919Z,13.66
2023-04-23T13:29:17.950Z,13.53
2023-04-23T13:31:45.152Z,13.34
2023-04-23T13:34:12.192Z,13.28
2023-04-23T13:36:41.740Z,13.32
2023-04-23T13:39:10.258Z,13.21
2023-04-23T13:41:37.665Z,13.48
2023-04-23T13:44:04.659Z,13.45
2023-04-23T13:46:32.165Z,13.07
2023-04-23T13:49:01.223Z,13.45
2023-04-23T13:51:35.836Z,13.35
2023-04-23T13:54:03.937Z,13.45
2023-04-23T13:56:31.429Z,13.45
2023-04-23T13:59:18.856Z,13.04
2023-04-23T14:01:50.143Z,13.63
2023-04-23T14:04:18.812Z,13.49
2023-04-23T14:06:45.930Z,13.66
2023-04-23T14:09:12.842Z,13.67
2023-04-23T14:11:40.749Z,13.47
2023-04-23T14:14:08.030Z,13.72
2023-04-23T14:16:35.645Z,13.78
2023-04-23T14:19:02.749Z,13.76
2023-04-23T14:21:29.939Z,13.41
2023-04-23T14:24:03.239Z,13.48
2023-04-23T14:26:47.427Z,13.31
2023-04-23T14:29:29.254Z,13.42
2023-04-23T14:31:56.459Z,13.07
2023-04-23T14:34:23.519Z,13.15
2023-04-23T14:36:53.257Z,13.40
2023-04-23T14:39:22.692Z,13.42
2023-04-23T14:41:49.837Z,13.26
2023-04-23T14:44:17.023Z,13.01
2023-04-23T14:46:44.458Z,13.51
2023-04-23T14:49:11.423Z,13.15
2023-04-23T14:51:38.689Z,13.41
2023-04-23T14:54:05.888Z,13.06
2023-04-23T14:56:32.889Z,13.27
2023-04-23T14:58:59.865Z,13.35
2023-04-23T15:01:27.350Z,13.29
2023-04-23T15:03:54.435Z,13.39
2023-04-23T15:06:21.606Z,13.02
2023-04-23T15:08:48.718Z,13.00
2023-04-23T15:11:15.734Z,13.06
2023-04-23T15:13:50.562Z,12.68
2023-04-23T15:19:10.314Z,13.18
2023-04-23T15:21:37.840Z,13.47
2023-04-23T15:24:05.074Z,13.05
2023-04-23T15:26:33.864Z,13.05
2023-04-23T15:29:00.990Z,13.33
2023-04-23T15:31:27.981Z,13.22
2023-04-23T15:33:54.970Z,13.13
2023-04-23T15:36:33.628Z,13.23
2023-04-23T15:39:00.803Z,13.04
2023-04-23T15:41:27.746Z,13.26
2023-04-23T15:43:55.711Z,13.32
2023-04-23T15:46:22.728Z,13.33
2023-04-23T15:48:49.740Z,13.24
2023-04-23T15:51:16.779Z,13.25
2023-04-23T15:53:44.020Z,13.24
2023-04-23T15:56:11.135Z,12.90
2023-04-23T15:58:38.087Z,13.02
2023-04-23T16:01:07.356Z,12.86
2023-04-23T16:03:34.958Z,12.88
2023-04-23T16:06:02.359Z,13.10
2023-04-23T16:08:29.369Z,13.14
2023-04-23T16:10:58.231Z,12.98
2023-04-23T16:13:29.081Z,13.02
2023-04-23T16:15:56.316Z,12.81
2023-04-23T16:18:23.283Z,12.95
2023-04-23T16:23:31.153Z,12.03
2023-04-23T16:25:59.550Z,11.96
2023-04-23T16:28:26.565Z,12.58
2023-04-23T16:30:53.694Z,12.59
2023-04-23T16:33:20.874Z,12.44
2023-04-23T16:35:47.948Z,12.61
2023-04-23T16:38:14.908Z,12.33
2023-04-23T16:40:42.331Z,12.10
2023-04-23T16:43:10.286Z,12.42
2023-04-23T16:45:38.809Z,12.23
2023-04-23T16:48:06.773Z,12.13
2023-04-23T16:50:33.860Z,12.40
2023-04-23T16:53:01.534Z,12.16
2023-04-23T16:55:31.840Z,12.40
2023-04-23T16:57:58.974Z,12.33
2023-04-23T17:00:25.964Z,12.24
2023-04-23T17:02:53.108Z,12.11
2023-04-23T17:05:24.150Z,11.99
2023-04-23T17:07:52.989Z,12.18
2023-04-23T17:10:20.097Z,12.29
2023-04-23T17:12:47.180Z,12.17
2023-04-23T17:15:14.212Z,12.17
2023-04-23T17:17:41.240Z,12.25
2023-04-23T17:20:09.086Z,12.25
2023-04-23T17:22:36.289Z,11.99
2023-04-23T17:25:06.453Z,12.21
2023-04-23T17:27:34.049Z,11.92
2023-04-23T17:30:01.062Z,11.95
2023-04-23T17:32:28.123Z,11.96
2023-04-23T17:35:06.381Z,12.10
2023-04-23T17:37:36.214Z,12.23
2023-04-23T17:40:05.959Z,12.20
2023-04-23T17:42:33.520Z,12.17
2023-04-23T17:45:00.814Z,12.17
2023-04-23T17:47:29.144Z,11.98
2023-04-23T17:49:56.069Z,12.02
2023-04-23T17:52:23.152Z,12.09
2023-04-23T17:54:50.077Z,11.94
2023-04-23T17:57:17.074Z,12.07
2023-04-23T17:59:44.332Z,11.73
2023-04-23T18:02:11.615Z,11.48
2023-04-23T18:04:38.715Z,11.70
2023-04-23T18:07:06.214Z,12.01
2023-04-23T18:09:33.219Z,12.00
2023-04-23T18:12:00.417Z,11.97
2023-04-23T18:14:27.415Z,11.96
2023-04-23T18:16:54.522Z,11.88
2023-04-23T18:19:21.546Z,11.78
2023-04-23T18:21:50.034Z,11.82
2023-04-23T18:24:18.815Z,11.77
2023-04-23T18:26:45.740Z,11.73
2023-04-23T18:29:12.966Z,11.25
2023-04-23T18:31:39.966Z,11.24
2023-04-23T18:34:10.199Z,11.07
2023-04-23T18:36:41.895Z,11.29
2023-04-23T18:39:09.081Z,10.91
2023-04-23T18:41:36.480Z,11.25
2023-04-23T18:44:03.457Z,10.73
2023-04-23T18:46:33.907Z,10.81
2023-04-23T18:49:01.357Z,10.63
2023-04-23T18:51:37.969Z,11.02
2023-04-23T18:54:05.986Z,10.94
2023-04-23T18:56:33.083Z,11.00
2023-04-23T18:59:00.209Z,10.72
2023-04-23T19:01:28.531Z,10.49
2023-04-23T19:03:56.893Z,10.85
2023-04-23T19:06:24.277Z,10.62
2023-04-23T19:08:51.320Z,10.66
2023-04-23T19:11:18.481Z,10.64
2023-04-23T19:13:45.468Z,10.43
2023-04-23T19:16:12.847Z,10.37
2023-04-23T19:18:40.085Z,10.43
2023-04-23T19:21:07.189Z,9.88
2023-04-23T19:23:34.368Z,10.34
2023-04-23T19:26:02.233Z,10.35
2023-04-23T19:28:29.294Z,9.98
2023-04-23T19:30:56.701Z,10.24
2023-04-23T19:33:24.206Z,9.72
2023-04-23T19:35:51.166Z,9.88
2023-04-23T19:38:18.208Z,9.59
2023-04-23T19:40:45.364Z,9.47
2023-04-23T19:43:12.894Z,9.93
2023-04-23T19:45:41.645Z,10.03
2023-04-23T19:48:08.765Z,9.88
2023-04-23T19:50:36.138Z,9.54
2023-04-23T19:53:06.154Z,9.63
2023-04-23T19:55:33.092Z,9.72
2023-04-23T19:58:00.757Z,9.64
2023-04-23T20:00:30.780Z,9.31
2023-04-23T20:02:58.284Z,9.33
2023-04-23T20:05:25.823Z,9.60
2023-04-23T20:07:52.816Z,9.51
2023-04-23T20:10:20.043Z,9.59
2023-04-23T20:12:46.972Z,9.40
2023-04-23T20:15:14.327Z,9.23
2023-04-23T20:17:41.785Z,9.18
2023-04-23T20:20:10.783Z,9.46
2023-04-23T20:22:37.773Z,9.34
2023-04-23T20:25:05.394Z,9.05
2023-04-23T20:27:33.396Z,9.41
2023-04-23T20:30:00.624Z,9.35
2023-04-23T20:32:27.613Z,9.30
2023-04-23T20:34:54.650Z,8.96
2023-04-23T20:37:26.947Z,9.15
2023-04-23T20:39:54.433Z,9.23
2023-04-23T20:42:21.787Z,9.20
2023-04-23T20:44:49.114Z,9.11
2023-04-23T20:47:16.657Z,8.98
2023-04-23T20:49:43.981Z,8.84
2023-04-23T20:52:12.615Z,8.89
2023-04-23T20:54:39.597Z,8.68
2023-04-23T20:57:07.127Z,8.94
2023-04-23T20:59:34.124Z,8.61
2023-04-23T21:02:01.393Z,8.66
2023-04-23T21:04:28.666Z,8.91
2023-04-23T21:06:56.368Z,8.67
2023-04-23T21:09:23.771Z,8.55
2023-04-23T21:11:51.135Z,8.38
2023-04-23T21:14:18.169Z,8.11
2023-04-23T21:16:45.166Z,8.34
2023-04-23T21:19:12.140Z,8.45
2023-04-23T21:21:39.175Z,8.56
2023-04-23T21:24:06.540Z,8.38
2023-04-23T21:26:33.552Z,8.26
2023-04-23T21:29:00.605Z,8.26
2023-04-23T21:31:52.194Z,8.50
2023-04-23T21:34:22.450Z,8.46
2023-04-23T21:36:49.947Z,8.34
2023-04-23T21:39:17.008Z,8.04
2023-04-23T21:41:44.930Z,8.37
2023-04-23T21:44:12.036Z,7.91
2023-04-23T21:46:39.209Z,8.09
2023-04-23T21:49:06.939Z,8.30
2023-04-23T21:51:41.181Z,8.00
2023-04-23T21:54:08.245Z,7.89
2023-04-23T21:56:36.089Z,8.22
2023-04-23T21:59:03.201Z,8.07
2023-04-23T22:01:32.488Z,7.48
2023-04-23T22:04:01.864Z,8.00
2023-04-23T22:06:29.638Z,7.98
2023-04-23T22:08:58.046Z,7.73
2023-04-23T22:11:25.871Z,7.87
2023-04-23T22:13:52.931Z,7.73
2023-04-23T22:16:28.671Z,7.93
2023-04-23T22:18:59.378Z,7.78
2023-04-23T22:21:26.403Z,7.84
2023-04-23T22:23:53.362Z,7.57
2023-04-23T22:26:21.278Z,7.85
2023-04-23T22:28:48.796Z,7.47
2023-04-23T22:31:16.114Z,7.80
2023-04-23T22:33:43.236Z,7.83
2023-04-23T22:36:10.250Z,7.22
2023-04-23T22:38:37.282Z,7.30
2023-04-23T22:41:04.340Z,7.60
2023-04-23T22:43:31.376Z,7.34
2023-04-23T22:45:58.437Z,7.48
2023-04-23T22:48:25.591Z,7.58
2023-04-23T22:50:52.756Z,7.67
2023-04-23T22:53:19.897Z,7.57
2023-04-23T22:55:47.468Z,7.54
2023-04-23T22:58:14.573Z,7.42
2023-04-23T23:00:42.048Z,7.47
2023-04-23T23:03:09.520Z,7.48
2023-04-23T23:05:36.833Z,7.49
2023-04-23T23:08:03.952Z,7.49
2023-04-23T23:10:31.054Z,7.00
2023-04-23T23:12:58.060Z,7.33
2023-04-23T23:15:24.984Z,6.82
2023-04-23T23:17:52.063Z,7.46
2023-04-23T23:20:19.820Z,7.33
2023-04-23T23:22:47.104Z,7.11
2023-04-23T23:25:14.069Z,7.23
2023-04-23T23:27:41.642Z,7.27
2023-04-23T23:30:09.848Z,7.14
2023-04-23T23:32:37.141Z,6.65
2023-04-23T23:35:04.492Z,6.39
2023-04-23T23:37:31.427Z,6.82
2023-04-23T23:40:08.692Z,6.74
2023-04-23T23:42:35.604Z,6.66
2023-04-23T23:45:02.941Z,6.57
2023-04-23T23:47:29.968Z,6.57
2023-04-23T23:49:56.989Z,6.33
2023-04-23T23:52:23.984Z,6.68
2023-04-23T23:54:51.424Z,6.81
2023-04-23T23:57:18.442Z,6.81
2023-04-23T23:59:45.621Z,6.56
